Regionale Übersicht

METAR und TAF

Dienstag, 12. November 2019 - 17:25 Uhr

Beobachtete horizontale meteorologische Sicht an ausgewählten Flughäfen. Die vollständigen METARs und Flugwettervorhersagen (TAFs) sind verfügbar, wenn Sie auf das entsprechende Symbol mit der ICAO-Flughafenkennung klicken.

  • Luxemburg (ELLX)

    Taf: TAF ELLX 121100Z 1212/1318 21013KT 8000 BKN015 TEMPO 1212/1218 4000 -RA BR BKN007 BECMG 1218/1221 18005KT BKN008 TEMPO 1223/1312 2000 -DZ BR OVC004=

    Metar: METAR ELLX 121550Z 21008KT 180V240 9999 -SHRA SCT013 BKN019 03/02 Q1002 NOSIG=

  • Spangdahlem (ETAD)

    Taf: TAF ETAD 121300Z 1213/1319 20015G25KT 9999 BKN010 OVC015 620158 QNH2958INS TEMPO 1213/1216 8000 -RA BKN007 OVC012 BECMG 1218/1219 22010G15KT 9999 BKN007 OVC015 620156 QNH2954INS TEMPO 1303/1312 8000 -RA TX05/1214Z TN02/1205Z=

    Metar: nil

  • Metz/Nancy (LFJL)

    Taf: TAF LFJL 121100Z 1212/1312 21015KT 9999 BKN018 TEMPO 1212/1218 4000 SHRA BKN012 SCT020TCU BECMG 1218/1220 19008KT BECMG 1301/1304 BKN010 TEMPO 1304/1310 4000 -DZRA BKN005=

    Metar: nil

  • Saarbrücken/Intl (EDDR)

    Taf: TAF EDDR 121100Z 1212/1312 21012KT 9999 BKN020 PROB30 TEMPO 1212/1218 22015G25KT 4000 SHRA BKN012 BKN020CB BECMG 1215/1218 22006KT TEMPO 1222/1308 4000 BR BKN008 PROB30 TEMPO 1308/1312 4000 DZRA BKN012=

    Metar: nil

  • Hahn (EDFH)

    Taf: TAF EDFH 121100Z 1212/1312 22010KT 9999 BKN010 TEMPO 1212/1218 21015G30KT 4000 SHRAGS BKN008 BKN020CB TEMPO 1222/1306 4000 BR BKN006 PROB30 TEMPO 1306/1312 4000 DZRA=

    Metar: nil

  • Ramstein (ETAR)

    Taf: TAF ETAR 121000Z 1210/1316 21009KT 9999 SCT015 BKN020 510103 620407 QNH2964INS TEMPO 1210/1215 21012G20KT 9000 -SHRA 610407 BECMG 1217/1218 22006KT 9999 BKN015 620407 QNH2963INS BECMG 1223/1224 21006KT 6000 BR BKN010 QNH2961INS TEMPO 1300/1304 3200 BR BKN006 BECMG 1308/1309 22012KT 9999 NSW FEW010 BKN020 620409 QNH2963INS BECMG 1312/1313 22012KT 9000 -SHRA BKN015 610402 QNH2964INS TX07/1211Z TN02/1305Z=

    Metar: nil

  • Nancy/Ochey (LFSO)

    Taf: TAF LFSO 121400Z 1215/1315 23015KT 9999 BKN020 PROB30 1215/1217 SHRA SCT011 SCT020TCU BECMG 1218/1220 23005KT CAVOK BECMG 1222/1224 BKN009 TEMPO 1304/1312 4000 -DZRA OVC005=

    Metar: nil

  • Liège Bierset (EBLG)

    Taf: TAF EBLG 121102Z 1212/1318 22010KT 9999 FEW015TCU BECMG 1222/1224 SCT005 BKN010 TEMPO 1302/1312 2500 -RADZ -RA BKN005 PROB40 TEMPO 1306/1312 BKN003 BECMG 1312/1314 SCT015=

    Metar: nil

  • Saint-Dizier (LFSI)

    Taf: TAF LFSI 121400Z 1215/1315 20010KT 9999 BKN020 TEMPO 1215/1220 4000 SHRA BKN020TCU BECMG 1221/1223 BKN010 TEMPO 1304/1312 2000 DZRA BKN005=

    Metar: nil

  • Maastricht/Zuid Limburg (EHBK)

    Taf: TAF EHBK 121114Z 1212/1318 21010KT 9999 BKN018 PROB40 TEMPO 1212/1215 22012G22KT 5000 RA SHRA BKN012 FEW015CB PROB40 TEMPO 1300/1312 6000 RADZ BKN012 PROB30 TEMPO 1304/1309 4000 -DZ BKN008 BECMG 1309/1312 24010KT=

    Metar: nil

  • Köln/Köln-Bonn (EDDK)

    Taf: TAF EDDK 121100Z 1212/1318 19012KT 9999 BKN030 PROB30 TEMPO 1212/1215 19015G25KT SHRAGS BKN020CB BECMG 1214/1217 16007KT PROB30 TEMPO 1302/1305 SHRA BKN020TCU=

    Metar: METAR EDDK 121550Z 17004KT 9999 FEW022 04/03 Q1002 NOSIG=

  • Charleroi (EBCI)

    Taf: TAF EBCI 121102Z 1212/1318 22010KT 9999 FEW015TCU BECMG 1220/1222 SCT005 BKN010 TEMPO 1222/1307 2500 -RADZ -RA BKN005 PROB40 TEMPO 1305/1309 BKN003 BECMG 1310/1312 SCT015=

    Metar: nil

  • Wiesbaden (ETOU)

    Taf: TAF AMD ETOU 121423Z 1214/1318 24015KT 9999 OVC030 620303 QNH2961INS BECMG 1215/1216 20008KT 9999 OVC020 QNH2964INS BECMG 1223/1224 18010KT 6000 -SHRA BR BKN015 QNH2961INS BECMG 1302/1303 21006KT 9999 NSW SCT030 QNH2961INS BECMG 1309/1310 20006KT 8000 -SHRA OVC015 620205 QNH2963INS TX08/1215Z TN03/1307Z=

    Metar: nil

  • Karlsruhe/Baden-Baden (EDSB)

    Taf: TAF EDSB 121100Z 1212/1312 20010KT 9999 BKN045 PROB30 TEMPO 1214/1221 SHRA BKN025CB BECMG 1218/1220 20005KT=

    Metar: nil

  • Chalons/Vatry (LFOK)

    Taf: TAF LFOK 121100Z 1212/1312 22015KT 9999 BKN012 BKN020 BECMG 1212/1214 BKN017 TEMPO 1212/1217 3000 SHRA BKN020CB PROB30 TEMPO 1212/1217 TSRA BECMG 1222/1224 2000 BR OVC002 TEMPO 1302/1312 4000 SHRA BKN007 BKN020CB=

    Metar: nil

  • Frankfurt/Main (EDDF)

    Taf: TAF EDDF 121100Z 1212/1318 19010KT 9999 BKN030 PROB30 TEMPO 1212/1218 21015G25KT SHRA BKN020CB BECMG 1219/1222 18004KT PROB30 TEMPO 1303/1308 4000 BR BKN012 BECMG 1307/1309 22009KT=

    Metar: METAR EDDF 121550Z 18008KT 9999 VCSH FEW012 FEW025CB SCT035 05/04 Q1004 RESHRA NOSIG=

  • Brüssel (EBBR)

    Taf: TAF EBBR 121102Z 1212/1318 22011KT 9999 FEW020TCU BECMG 1219/1221 SCT008 BKN012 TEMPO 1221/1306 3000 -RADZ -RA BKN006 PROB40 TEMPO 1303/1309 BKN004 BECMG 1309/1311 SCT015=

    Metar: METAR EBBR 121550Z 22013KT 9999 FEW020 06/02 Q1000 NOSIG=

  • Düsseldorf (EDDL)

    Taf: TAF EDDL 121100Z 1212/1318 18012KT 9999 BKN030 TEMPO 1212/1216 19015G25KT PROB30 TEMPO 1212/1215 SHRAGS BKN013CB PROB30 TEMPO 1302/1305 SHRA BKN020TCU TEMPO 1305/1309 BKN013 BECMG 1314/1317 19007KT=

    Metar: nil

  • Luxeuil (LFSX)

    Taf: TAF LFSX 121400Z 1215/1315 23007KT 9999 BKN020 BKN030 PROB40 1215/1218 21010G20KT TEMPO 1221/1224 3000 BR BECMG 1300/1303 0800 FG BECMG 1306/1309 9999 NSW BKN005=

    Metar: nil

  • Eindhoven (EHEH)

    Taf: TAF EHEH 121120Z 1212/1318 21010KT 9999 FEW015 SCT020 PROB30 TEMPO 1212/1215 22012G22KT BECMG 1221/1224 19010G20KT SCT015 BKN020 TEMPO 1223/1306 4500 RA SHRA SCT008 BKN012 SCT018CB PROB40 TEMPO 1301/1304 SCT005 BKN010 BECMG 1306/1309 FEW018 SCT025 BECMG 1314/1317 17008KT=

    Metar: nil

  • Niederrhein (EDLV)

    Taf: TAF EDLV 121100Z 1212/1312 19008KT 9999 BKN020 PROB30 TEMPO 1212/1214 4000 SHRAGS BKN012CB PROB30 TEMPO 1301/1304 SHRA BKN012TCU TEMPO 1304/1309 BKN010=

    Metar: nil

  • Dortmund/Wickede (EDLW)

    Taf: TAF EDLW 121100Z 1212/1312 19012KT 9999 BKN030 TEMPO 1212/1215 20015G25KT TEMPO 1212/1213 RA BKN013 PROB30 TEMPO 1213/1215 4000 SHRAGS BKN012TCU=

    Metar: nil

  • Stuttgart/Echterdingen (EDDS)

    Taf: TAF EDDS 121100Z 1212/1312 18005KT 9999 SCT045 BECMG 1219/1222 VRB03KT PROB30 TEMPO 1303/1306 4000 BR BKN008=

    Metar: METAR EDDS 121550Z 20005KT 180V240 CAVOK 06/M00 Q1005 NOSIG=

  • Basel-Mühlhausen (LFSB)

    Taf: TAF LFSB 121100Z 1212/1312 24010KT 9999 BKN035 TEMPO 1214/1302 FEW030TCU PROB40 TEMPO 1214/1302 30015KT 4000 SHRA=

    Metar: METAR LFSB 121600Z 23003KT 200V290 9999 FEW026 SCT040 BKN070 06/03 Q1006 TEMPO 31015KT SHRA=

  • Lille (LFQQ)

    Taf: TAF LFQQ 121100Z 1212/1318 21010KT 9999 SCT030 TEMPO 1218/1304 4000 SHRA BKN025CB PROB40 TEMPO 1218/1221 27015G25KT 2000 TSRA TEMPO 1314/1318 4000 SHRA BKN025CB=

    Metar: nil

  • Paris/Charles de Gaulle (LFPG)

    Taf: TAF AMD LFPG 121540Z 1215/1318 22008KT 9999 SCT030 TX08/1313Z TN03/1304Z PROB30 TEMPO 1222/1223 SCT030TCU PROB40 TEMPO 1304/1307 4000 BR BKN004 PROB40 TEMPO 1311/1315 SCT013TCU BKN015=

    Metar: nil

  • Paderborn/Lippstadt (EDLP)

    Taf: TAF EDLP 121100Z 1212/1312 18010KT 9999 BKN030 TEMPO 1212/1215 19015G25KT RA=

    Metar: nil

  • Paris/Le Bourget (LFPB)

    Taf: TAF AMD LFPB 121543Z 1215/1312 24008KT 9999 SCT030 PROB30 TEMPO 1222/1223 SCT030TCU PROB40 TEMPO 1304/1307 4000 BR BKN004 PROB40 TEMPO 1311/1312 SCT013TCU BKN015=

    Metar: METAR LFPB 121600Z AUTO 18004KT 9999 FEW039 04/03 Q1004 NOSIG=

  • Rotterdam (EHRD)

    Taf: TAF AMD EHRD 121316Z 1213/1318 21015KT 9999 SCT030 TEMPO 1220/1301 21015G25KT 6000 RA SHRA BKN010 FEW020CB BECMG 1301/1304 22010KT TEMPO 1301/1316 28015G25KT 6000 SHRA SCT020CB PROB30 TEMPO 1301/1314 4000 SHRAGS BECMG 1307/1310 27012KT BECMG 1314/1317 18006KT=

    Metar: nil

  • Zürich/Kloten (LSZH)

    Taf: TAF LSZH 121425Z 1215/1321 24007KT 9999 SCT045 TX08/1215Z TN01/1305Z TX06/1314Z PROB40 TEMPO 1216/1219 CAVOK PROB40 TEMPO 1221/1302 4500 SHRA SCT025TCU BKN030 PROB30 1304/1307 4000 MIFG=

    Metar: METAR LSZH 121550Z 35004KT 9999 FEW043 07/M00 Q1005 NOSIG=

  • Oostende/Intl (EBOS)

    Taf: TAF EBOS 121102Z 1212/1318 22013KT 9999 FEW020TCU TEMPO 1217/1224 3500 -RA -RADZ SCT008 BKN012 BECMG 1223/1301 29012KT BECMG 1306/1308 22008KT BECMG 1316/1318 16010KT=

    Metar: nil

  • Paris/Orly (LFPO)

    Taf: TAF LFPO 121100Z 1212/1318 24010KT 9999 BKN020 TEMPO 1212/1217 4000 -SHRA SCT014 BKN020TCU PROB40 TEMPO 1212/1216 24015G25KT 2500 SHRA SCT018CB BECMG 1218/1220 SCT025 PROB40 TEMPO 1222/1303 -SHRA BKN020 PROB30 TEMPO 1305/1308 BKN008 TEMPO 1313/1318 4000 -SHRA SCT020TCU=

    Metar: nil

  • Beauvais (LFOB)

    Taf: TAF LFOB 121100Z 1212/1312 23010KT 9999 SCT030 TEMPO 1212/1304 4000 SHRA BKN025CB TEMPO 1212/1216 28020G30KT PROB40 TEMPO 1220/1223 2000 TSRA PROB40 1305/1310 4000 BR OVC004=

    Metar: nil

  • Münster/Intl (EDDG)

    Taf: TAF EDDG 121100Z 1212/1312 19010KT 9999 BKN030 TEMPO 1212/1214 RA BKN012 BECMG 1214/1217 16005KT BECMG 1306/1309 20010KT TEMPO 1306/1310 BKN010=

    Metar: METAR EDDG 121550Z 19006KT 160V220 9999 FEW015 BKN019 05/02 Q1000 NOSIG=

  • Illesheim (ETIK)

    Taf: TAF ETIK 121504Z 1215/1321 VRB06KT 9999 BKN040 620503 QNH2959INS TEMPO 1219/1221 -RA BECMG 1220/1221 VRB06KT 9999 FEW010 OVC015 620403 QNH2959INS BECMG 1301/1302 VRB06KT 9999 OVC008 620403 QNH2957INS BECMG 1309/1310 22009KT 9999 OVC015 620404 QNH2960INS TEMPO 1311/1314 21010G15KT TX05/1214Z TN00/1302Z=

    Metar: nil

  • Duebendorf (LSMD)

    Taf: TAF LSMD 120925Z 1210/1316 22005KT 9999 FEW033 TEMPO 1210/1214 CAVOK PROB30 TEMPO 1221/1304 3000 SHRASN BKN010 PROB30 1304/1307 4000 MIFG=

    Metar: nil

  • Villacoublay (LFPV)

    Taf: TAF LFPV 121400Z 1215/1315 24010KT 9999 SCT025 TEMPO 1215/1216 24015G25KT 4000 -SHRA BKN020 BKN030CB TEMPO 1222/1304 4000 -SHRA BKN020 BKN030TCU PROB30 TEMPO 1222/1308 BKN008=

    Metar: nil

  • Payerne (LSMP)

    Taf: TAF LSMP 120925Z 1210/1316 23005KT CAVOK BECMG 1219/1221 9999 BKN060=

    Metar: nil

  • Amsterdam/Schipol (EHAM)

    Taf: TAF COR EHAM 121326Z 1213/1318 21015KT 9999 SCT030 TEMPO 1213/1214 23017G27KT 6000 SHRA SCT025CB BKN025 PROB30 TEMPO 1213/1214 4000 TSRAGS BKN018 SCT025CB TEMPO 1220/1301 21015G25KT 6000 RA SHRA BKN010 FEW020CB BECMG 1301/1304 22010KT TEMPO 1301/1316 28015G25KT 6000 SHRA SCT020CB PROB30 TEMPO 1301/1314 4000 SHRAGS BECMG 1307/1310 27012KT BECMG 1315/1318 18006KT=

    Metar: METAR EHAM 121555Z 20015KT 160V220 9999 FEW034 06/03 Q0997 NOSIG=

  • Emmen (LSME)

    Taf: TAF LSME 120925Z 1210/1316 VRB03KT 9999 FEW050 TEMPO 1210/1215 CAVOK PROB30 TEMPO 1221/1304 3000 SHRASN BKN010 PROB40 1304/1308 4000 MIFG=

    Metar: nil

  • Friedrichshafen (EDNY)

    Taf: TAF EDNY 121100Z 1212/1312 22005KT 9999 SCT055 BECMG 1215/1218 05003KT TEMPO 1302/1308 4500 BR BKN013 BECMG 1307/1310 25005KT=

    Metar: nil

  • Alpnach (LSMA)

    Taf: TAF LSMA 120925Z 1210/1316 VRB02KT 9999 FEW030 TEMPO 1210/1215 CAVOK PROB30 TEMPO 1221/1304 3000 SHRASN BKN010 PROB30 1304/1307 4000 MIFG=

    Metar: nil

  • Meiringen (LSMM)

    Taf: TAF LSMM 120925Z 1210/1316 11003KT 7000 FEW020 BKN050 TEMPO 1210/1215 CAVOK PROB30 TEMPO 1221/1304 3000 SHSN BKN010 PROB40 1304/1307 4000 MIFG TEMPO 1308/1313 CAVOK=

    Metar: nil

  • Nürnberg (EDDN)

    Taf: TAF EDDN 121100Z 1212/1312 14005KT 9999 FEW015 BKN035 PROB30 TEMPO 1304/1306 BKN013 BECMG 1308/1310 22005KT=

    Metar: METAR EDDN 121550Z 17007KT 9999 SCT041 05/01 Q1006 NOSIG=

  • Rouen (LFOP)

    Taf: TAF LFOP 121100Z 1212/1312 23010KT 9999 SCT030 TEMPO 1212/1303 4000 SHRA BKN025CB TEMPO 1212/1216 28020G30KT PROB40 TEMPO 1220/1223 2000 TSRA TEMPO 1305/1309 2000 BR TEMPO 1310/1312 4000 SHRA BKN008 BKN020CB=

    Metar: nil

  • Evreux (LFOE)

    Taf: TAF LFOE 121400Z 1215/1315 25010G20KT 9999 SCT025 SCT040 TEMPO 1215/1216 VRB15G30KT 1500 SHRAGS BKN012 BKN025CB PROB30 TEMPO 1215/1216 TSRA TEMPO 1219/1224 4000 -RA BKN020 BECMG 1300/1303 24008KT 4000 BR BKN004 PROB30 TEMPO 1304/1307 0800 BCFG BECMG 1307/1309 9999 NSW BECMG 1309/1311 BKN010 TEMPO 1309/1315 29015G25KT 4000 -SHRA BKN006 BKN025TCU=

    Metar: nil

  • Erfurt/Bindersleben (EDDE)

    Taf: TAF EDDE 121100Z 1212/1312 20015G25KT 9999 SCT030 BECMG 1213/1216 20010KT=

    Metar: nil